x

Kaunakakai, Molokai Airport (91186) Weather Station

3:54 - Fri 24th Feb 2017 All times are HST. -10 hours from GMT.

  • Wind
    13mph, 22mph gusts
  • Ar Temp 73°f
  • Sea Pressure 1016.3mb
  • Kaunakakai, Molokai Airport
  • Kaunakakai, Molokai Airport

More Historic Weather Station data

Upgrade to MSW Pro to gain access to the past 30 days of data for over 8000 Wavebouys and Weather Stations around the globe.

Join Pro

Comparision Forecast

View Surf forecast
   
Sex 02/24 3:54 13 22 mph 1016.3mb 73f
2:54 13 23 mph 1016.3mb 75f
1:54 14 20 mph 1016.6mb 75f
12:54 13 22 mph 1017.3mb 75f
11:54 13 22 mph 1018mb 75f
11:25 15 22 mph 1018.3mb 72f
11:18 10 22 mph 1018.3mb 72f
10:54 13 21 mph 1018.6mb 72f
9:54 6
mph
1019.3mb 66f
8:54 14 23 mph 1019mb 70f
7:54 13 20 mph 1018.6mb 70f
6:54 8
mph
1018.3mb 70f
5:54 3
mph
1018.3mb 66f
4:54 7
mph
1018.3mb 70f
3:54 7 17 mph 1018.3mb 70f
2:54 8
mph
1018.6mb 70f
1:54 8
mph
1018.6mb 70f
12:54 10 16 mph 1019.6mb 70f
Qui 02/23 11:54 13 21 mph 1019.6mb 70f
10:54 9 18 mph 1020mb 70f
9:54 12 18 mph 1020.3mb 70f
8:54 10 21 mph 1020.3mb 70f
7:54 10 21 mph 1020.3mb 72f
6:54 12 18 mph 1020mb 70f
5:54 13 21 mph 1019.6mb 72f
4:54 13 22 mph 1019.3mb 73f
3:54 13 24 mph 1019.3mb 75f
2:54 15 28 mph 1019.6mb 75f
1:54 15 29 mph 1020mb 77f
12:54 17 31 mph 1021mb 77f
11:54 14 29 mph 1022mb 75f
10:54 18 31 mph 1022.4mb 75f
9:54 14 28 mph 1022.7mb 73f
8:54 14 25 mph 1022.7mb 73f
7:54 16 29 mph 1022mb 72f
6:54 13 22 mph 1022mb 72f
5:54 12 23 mph 1021.3mb 72f
4:54 13 22 mph 1021mb 72f
4:01 15 23 mph 1021mb 72f
3:54 12 20 mph 1021.3mb 72f
2:54 15 23 mph 1021.7mb 72f
2:12 15 24 mph 1022.4mb 71f
1:54 12 23 mph 1022.7mb 72f
Qua 02/22 1:54 15 29 mph 1020mb 77f
12:54 17 28 mph 1023.7mb 72f
Ter 02/21 11:54 15 29 mph 1024mb 72f
10:54 12 24 mph 1024.7mb 72f
9:54 13 27 mph 1024.7mb 72f
8:54 14 24 mph 1024.4mb 72f
7:54 18 32 mph 1024mb 72f
6:54 20 28 mph 1023.4mb 72f
5:54 17 31 mph 1022.4mb 73f
4:54 18 32 mph 1022.4mb 75f
3:54 28 36 mph 1022mb 75f
2:54 23 35 mph 1022.4mb 77f
1:54 18 37 mph 1022.7mb 75f
12:54 23 36 mph 1023.4mb 75f
11:54 23 43 mph 1024mb 75f
10:54 21 32 mph 1024.7mb 77f
9:54 25 37 mph 1024mb 75f
8:54 14 24 mph 1025.1mb 73f
7:54 8
mph
1024.7mb 72f
6:54 15 24 mph 1024mb 70f
5:54 14
mph
1023.7mb 70f
4:54 12 21 mph 1022.7mb 70f
3:54 14 23 mph 1022.4mb 72f
2:54 15 25 mph 1022.7mb 70f